Time;durP1;ratioP1;P1;durP2;ratioP2;P2;SDS_P1;SDS_P2;PMS_P1;PMS_P2;Temp;Humidity;BMP_temperature;BMP_pressure;BME280_temperature;BME280_humidity;BME280_pressure;Samples;Min_cycle;Max_cycle;Signal;HPM_P1;HPM_P2
2022/07/12 00:02:15;;;;;;;6.10;5.80;;;21.80;62.50;;;;;;5064566;28;20211;-80
2022/07/12 00:04:41;;;;;;;5.97;5.65;;;21.80;62.10;;;;;;5074637;28;20195;-81
2022/07/12 00:07:07;;;;;;;6.32;5.75;;;21.70;62.30;;;;;;5062337;28;20218;-81
2022/07/12 00:09:33;;;;;;;5.70;5.40;;;21.60;62.80;;;;;;5061506;28;20184;-81
2022/07/12 00:11:59;;;;;;;6.35;5.95;;;21.40;64.50;;;;;;5057343;28;20214;-81
2022/07/12 00:14:25;;;;;;;6.72;6.30;;;21.40;63.90;;;;;;5058275;28;20691;-81
2022/07/12 00:16:51;;;;;;;6.65;6.15;;;21.40;64.20;;;;;;5061334;28;20194;-81
2022/07/12 00:19:18;;;;;;;6.32;5.88;;;21.30;64.40;;;;;;5061224;28;20192;-80
2022/07/12 00:21:43;;;;;;;6.70;6.30;;;21.30;64.70;;;;;;5059405;28;20419;-81
2022/07/12 00:24:09;;;;;;;6.03;5.70;;;21.30;65.00;;;;;;5059578;28;20704;-80
2022/07/12 00:26:35;;;;;;;6.40;6.00;;;21.20;65.20;;;;;;5061066;28;20220;-81
2022/07/12 00:29:01;;;;;;;5.95;5.55;;;21.10;65.50;;;;;;5063687;28;20195;-83
2022/07/12 00:31:27;;;;;;;6.50;6.20;;;21.00;66.40;;;;;;5056289;28;20217;-82
2022/07/12 00:33:53;;;;;;;6.60;6.30;;;21.10;66.10;;;;;;5063092;28;20222;-80
2022/07/12 00:36:19;;;;;;;6.45;6.05;;;21.20;65.60;;;;;;5061555;28;20178;-82
2022/07/12 00:38:45;;;;;;;6.93;6.53;;;21.20;65.50;;;;;;5055931;28;20413;-81
2022/07/12 00:41:11;;;;;;;6.43;6.07;;;21.20;64.90;;;;;;5051007;28;20683;-81
2022/07/12 00:43:37;;;;;;;6.40;6.00;;;21.20;65.20;;;;;;5057602;28;20190;-81
2022/07/12 00:46:03;;;;;;;6.40;6.10;;;21.30;64.90;;;;;;5055854;28;20191;-81
2022/07/12 00:48:31;;;;;;;6.25;5.95;;;21.30;64.80;;;;;;5061462;28;20187;-81
2022/07/12 00:50:57;;;;;;;6.47;5.97;;;21.30;64.70;;;;;;5051088;28;20268;-81
2022/07/12 00:53:24;;;;;;;6.43;6.13;;;21.30;64.70;;;;;;5062252;28;20269;-81
2022/07/12 00:55:55;;;;;;;6.25;5.80;;;21.30;64.40;;;;;;5053279;28;20185;-80
2022/07/12 00:58:22;;;;;;;6.13;5.80;;;21.20;64.90;;;;;;5065744;28;20179;-82
2022/07/12 01:00:49;;;;;;;6.10;5.80;;;21.20;64.90;;;;;;5065338;28;20200;-81
2022/07/12 01:03:15;;;;;;;6.20;5.90;;;21.20;65.00;;;;;;5064120;28;20196;-81
2022/07/12 01:05:40;;;;;;;6.72;6.32;;;21.30;65.10;;;;;;5049880;28;20249;-82
2022/07/12 01:08:07;;;;;;;6.18;5.88;;;21.40;64.70;;;;;;5059017;28;20279;-82
2022/07/12 01:10:34;;;;;;;6.25;5.95;;;21.40;64.70;;;;;;5059028;28;20223;-82
2022/07/12 01:13:01;;;;;;;6.50;6.20;;;21.40;64.50;;;;;;5061821;28;20220;-81
2022/07/12 01:15:29;;;;;;;6.22;5.93;;;21.40;64.50;;;;;;5056927;28;20188;-80
2022/07/12 01:17:56;;;;;;;6.18;5.68;;;21.30;66.30;;;;;;5063802;28;20524;-81
2022/07/12 01:20:23;;;;;;;6.43;6.13;;;21.10;66.90;;;;;;5061794;28;20254;-80
2022/07/12 01:22:54;;;;;;;6.25;5.95;;;21.00;67.30;;;;;;5061876;28;20229;-81
2022/07/12 01:25:20;;;;;;;6.68;6.28;;;20.80;68.10;;;;;;5062400;28;20182;-80
2022/07/12 01:27:46;;;;;;;6.28;5.97;;;20.80;68.00;;;;;;5058742;28;20282;-80
2022/07/12 01:30:12;;;;;;;6.93;6.53;;;20.90;67.70;;;;;;5060580;28;20227;-80
2022/07/12 01:32:39;;;;;;;6.50;6.10;;;20.90;67.70;;;;;;5062301;28;20265;-81
2022/07/12 01:35:06;;;;;;;6.45;6.10;;;21.00;67.20;;;;;;5058731;28;20176;-82
2022/07/12 01:37:37;;;;;;;6.32;6.00;;;21.10;66.90;;;;;;5059060;28;20186;-82
2022/07/12 01:40:05;;;;;;;6.70;6.30;;;21.20;66.40;;;;;;5052984;28;20226;-81
2022/07/12 01:42:31;;;;;;;6.65;6.25;;;21.00;67.50;;;;;;5058252;28;20190;-81
2022/07/12 01:44:57;;;;;;;6.82;6.32;;;20.70;68.70;;;;;;5060032;28;20602;-81
2022/07/12 01:47:25;;;;;;;5.55;5.18;;;20.20;70.70;;;;;;5060235;28;20195;-80
2022/07/12 01:49:50;;;;;;;5.45;5.05;;;20.00;72.30;;;;;;5057878;28;20181;-81
2022/07/12 01:52:18;;;;;;;5.10;4.80;;;19.70;73.20;;;;;;5058338;28;20244;-81
2022/07/12 01:54:45;;;;;;;4.80;4.50;;;19.70;73.90;;;;;;5060388;28;20180;-80
2022/07/12 01:57:11;;;;;;;4.63;4.32;;;19.50;74.60;;;;;;5055089;28;20189;-80
2022/07/12 01:59:39;;;;;;;4.53;4.13;;;19.40;75.20;;;;;;5059188;28;20180;-81
2022/07/12 02:02:05;;;;;;;4.40;4.07;;;19.30;75.80;;;;;;5056687;28;20241;-81
2022/07/12 02:04:31;;;;;;;4.38;4.18;;;19.30;75.60;;;;;;5051686;28;20184;-81
2022/07/12 02:06:57;;;;;;;4.65;4.35;;;19.50;75.20;;;;;;5058367;28;20219;-81
2022/07/12 02:09:23;;;;;;;4.18;3.85;;;19.50;74.90;;;;;;5054365;28;20193;-82
2022/07/12 02:11:49;;;;;;;4.63;4.32;;;19.40;75.30;;;;;;5063068;28;20212;-82
2022/07/12 02:14:16;;;;;;;4.85;4.55;;;19.70;73.90;;;;;;5056910;28;20209;-80
2022/07/12 02:16:42;;;;;;;5.00;4.70;;;19.80;72.90;;;;;;5057108;28;20180;-79
2022/07/12 02:19:10;;;;;;;4.50;4.20;;;19.80;73.10;;;;;;5059660;28;20226;-81
2022/07/12 02:21:36;;;;;;;4.32;4.10;;;19.80;73.30;;;;;;5054526;28;20758;-82
2022/07/12 02:24:02;;;;;;;4.60;4.30;;;19.60;74.20;;;;;;5046587;28;20227;-80
2022/07/12 02:26:28;;;;;;;4.57;4.30;;;19.60;74.60;;;;;;5058802;28;20794;-80
2022/07/12 02:28:54;;;;;;;5.03;4.70;;;19.60;74.50;;;;;;5055667;28;20858;-82
2022/07/12 02:31:20;;;;;;;4.90;4.60;;;19.60;74.20;;;;;;5052830;28;20212;-82
2022/07/12 02:33:46;;;;;;;4.88;4.53;;;19.80;73.50;;;;;;5059640;28;20230;-80
2022/07/12 02:36:12;;;;;;;4.40;4.18;;;19.70;74.30;;;;;;5063505;28;20729;-82
2022/07/12 02:38:38;;;;;;;4.10;3.90;;;19.50;74.80;;;;;;5056322;28;20189;-81
2022/07/12 02:41:04;;;;;;;4.53;4.32;;;19.40;75.60;;;;;;5055379;28;20208;-81
2022/07/12 02:43:30;;;;;;;4.68;4.40;;;19.50;75.30;;;;;;5061464;28;20201;-82
2022/07/12 02:46:10;;;;;;;4.88;4.57;;;19.40;75.90;;;;;;5060151;28;20204;-81
2022/07/12 02:48:37;;;;;;;5.30;4.90;;;19.40;75.90;;;;;;5060220;28;20258;-82
2022/07/12 02:51:04;;;;;;;7.30;5.45;;;19.50;75.40;;;;;;5066905;28;20271;-82
2022/07/12 02:53:31;;;;;;;5.03;4.72;;;19.50;75.20;;;;;;5060114;28;20535;-82
2022/07/12 02:55:56;;;;;;;5.65;5.20;;;19.70;74.20;;;;;;5051985;28;20238;-81
2022/07/12 02:58:22;;;;;;;5.18;4.88;;;19.90;73.30;;;;;;5061183;28;20189;-81
2022/07/12 03:00:48;;;;;;;5.05;4.75;;;20.00;73.10;;;;;;5061639;28;20200;-81
2022/07/12 03:03:15;;;;;;;5.35;5.05;;;20.00;72.70;;;;;;5061803;28;20186;-81
2022/07/12 03:05:41;;;;;;;5.22;4.82;;;19.90;73.30;;;;;;5061198;28;20193;-82
2022/07/12 03:08:08;;;;;;;5.47;5.15;;;19.90;73.00;;;;;;5054973;28;20192;-82
2022/07/12 03:10:34;;;;;;;5.20;4.90;;;20.10;72.20;;;;;;5059061;28;20273;-82
2022/07/12 03:13:00;;;;;;;5.28;4.97;;;20.20;71.30;;;;;;5062927;28;20396;-80
2022/07/12 03:15:27;;;;;;;5.47;5.18;;;20.30;70.90;;;;;;5065366;28;20223;-81
2022/07/12 03:17:54;;;;;;;5.47;5.15;;;20.30;70.50;;;;;;5055264;28;20189;-83
2022/07/12 03:20:19;;;;;;;5.28;4.80;;;20.30;70.90;;;;;;5052049;28;21059;-80
2022/07/12 03:22:46;;;;;;;5.03;4.72;;;20.30;71.20;;;;;;5061040;28;20232;-81
2022/07/12 03:25:12;;;;;;;5.22;4.82;;;20.30;71.30;;;;;;5053164;28;20213;-80
2022/07/12 03:27:38;;;;;;;5.97;4.75;;;20.10;72.10;;;;;;5052099;28;20185;-81
2022/07/12 03:30:05;;;;;;;5.20;4.80;;;20.10;72.10;;;;;;5056267;28;20232;-80
2022/07/12 03:32:31;;;;;;;4.93;4.63;;;20.10;72.00;;;;;;5056902;28;20242;-81
2022/07/12 03:34:56;;;;;;;4.75;4.55;;;20.10;71.90;;;;;;5046693;28;20193;-81
2022/07/12 03:37:22;;;;;;;12.38;6.10;;;20.10;71.60;;;;;;5055374;28;20281;-81
2022/07/12 03:39:48;;;;;;;5.00;4.65;;;20.20;71.30;;;;;;5052113;28;20213;-81
2022/07/12 03:42:13;;;;;;;5.25;4.95;;;20.20;71.10;;;;;;5059677;28;20283;-80
2022/07/12 03:44:39;;;;;;;5.28;4.95;;;20.00;72.00;;;;;;5047911;28;20223;-81
2022/07/12 03:47:05;;;;;;;5.25;4.95;;;19.80;72.50;;;;;;5048999;28;20574;-81
2022/07/12 03:49:31;;;;;;;4.50;4.25;;;19.90;72.60;;;;;;5058868;28;20185;-82
2022/07/12 03:51:57;;;;;;;4.93;4.63;;;19.90;72.30;;;;;;5056805;28;20297;-80
2022/07/12 03:54:23;;;;;;;5.03;4.72;;;20.00;71.70;;;;;;5052901;28;20288;-80
2022/07/12 03:59:34;;;;;;;4.60;4.30;;;20.10;71.60;;;;;;5044835;28;20201;-81
2022/07/12 04:02:02;;;;;;;4.88;4.55;;;19.80;72.70;;;;;;5060431;28;20200;-82
2022/07/12 04:04:27;;;;;;;5.40;4.68;;;19.70;73.10;;;;;;5055833;28;20246;-80
2022/07/12 04:06:56;;;;;;;4.90;4.50;;;19.80;72.70;;;;;;5055047;28;20213;-81
2022/07/12 04:09:22;;;;;;;4.80;4.40;;;19.90;72.10;;;;;;5063812;28;20189;-81
2022/07/12 04:11:48;;;;;;;4.85;4.55;;;19.90;72.30;;;;;;5062988;28;20212;-81
2022/07/12 04:14:15;;;;;;;4.93;4.63;;;19.80;72.70;;;;;;5052867;28;20262;-81
2022/07/12 04:16:41;;;;;;;4.40;4.10;;;19.80;73.00;;;;;;5054273;28;20655;-81
2022/07/12 04:19:08;;;;;;;5.18;4.70;;;19.80;73.00;;;;;;5054549;28;20274;-81
2022/07/12 04:21:35;;;;;;;4.65;4.35;;;19.70;73.60;;;;;;5059512;28;20192;-81
2022/07/12 04:24:00;;;;;;;5.10;4.80;;;19.70;73.40;;;;;;5059482;28;20212;-80
2022/07/12 04:26:26;;;;;;;6.68;6.25;;;19.80;73.20;;;;;;5058162;28;20234;-80
2022/07/12 04:28:51;;;;;;;4.78;4.57;;;19.70;73.50;;;;;;5042620;28;20200;-81
2022/07/12 04:31:17;;;;;;;4.88;4.60;;;19.60;74.00;;;;;;5059199;28;20211;-80
2022/07/12 04:33:43;;;;;;;4.75;4.45;;;19.60;74.20;;;;;;5056144;28;20303;-80
2022/07/12 04:36:08;;;;;;;4.75;4.45;;;19.60;74.60;;;;;;5045452;28;20730;-81
2022/07/12 04:38:34;;;;;;;5.13;4.72;;;19.40;75.30;;;;;;5043399;28;20193;-81
2022/07/12 04:41:00;;;;;;;4.88;4.57;;;19.50;74.90;;;;;;5055197;28;20217;-81
2022/07/12 04:43:25;;;;;;;4.63;4.38;;;19.50;74.80;;;;;;5052609;28;20195;-80
2022/07/12 04:45:51;;;;;;;4.70;4.40;;;19.50;75.40;;;;;;5057678;28;20271;-80
2022/07/12 04:48:17;;;;;;;5.15;4.75;;;19.50;75.70;;;;;;5056756;28;20181;-80
2022/07/12 04:50:43;;;;;;;4.95;4.65;;;19.50;75.70;;;;;;5049079;28;20220;-80
2022/07/12 04:53:09;;;;;;;4.75;4.45;;;19.50;75.90;;;;;;5053192;28;20299;-81
2022/07/12 04:55:36;;;;;;;5.32;4.82;;;19.40;76.30;;;;;;5047006;28;20184;-80
2022/07/12 04:58:01;;;;;;;5.05;4.75;;;19.40;76.40;;;;;;5038389;28;20191;-83
2022/07/12 05:00:27;;;;;;;4.97;4.68;;;19.30;77.20;;;;;;5053415;28;20686;-80
2022/07/12 05:02:53;;;;;;;4.95;4.55;;;19.30;77.60;;;;;;5050381;28;20223;-82
2022/07/12 05:05:19;;;;;;;4.80;4.50;;;19.40;77.20;;;;;;5045990;28;20193;-81
2022/07/12 05:07:45;;;;;;;4.63;4.32;;;19.30;77.50;;;;;;5054292;28;20647;-80
2022/07/12 05:10:10;;;;;;;4.72;4.43;;;19.40;77.20;;;;;;5047709;28;20211;-81
2022/07/12 05:12:36;;;;;;;4.55;4.25;;;19.50;76.40;;;;;;5043453;28;20272;-81
2022/07/12 05:15:03;;;;;;;4.88;4.47;;;19.50;76.30;;;;;;5047972;28;20196;-82
2022/07/12 05:17:29;;;;;;;5.10;4.70;;;19.50;76.70;;;;;;5044666;28;20560;-81
2022/07/12 05:19:55;;;;;;;4.97;4.72;;;19.50;76.20;;;;;;5049781;28;20585;-81
2022/07/12 05:22:21;;;;;;;4.60;4.40;;;19.50;76.90;;;;;;5039907;28;20189;-83
2022/07/12 05:24:46;;;;;;;4.75;4.45;;;19.50;76.10;;;;;;5044534;28;20215;-81
2022/07/12 05:27:15;;;;;;;4.60;4.30;;;19.50;76.40;;;;;;5053212;28;20196;-81
2022/07/12 05:29:41;;;;;;;4.63;4.38;;;19.60;76.40;;;;;;5049383;28;20679;-83
2022/07/12 05:32:06;;;;;;;4.60;4.40;;;19.60;76.30;;;;;;5057077;28;20200;-82
2022/07/12 05:34:32;;;;;;;4.57;4.38;;;19.50;77.10;;;;;;5051003;28;20224;-81
2022/07/12 05:36:58;;;;;;;5.18;4.78;;;19.50;76.60;;;;;;5055877;28;20219;-81
2022/07/12 05:39:24;;;;;;;5.13;4.43;;;19.60;76.40;;;;;;5046003;28;20193;-83
2022/07/12 05:41:49;;;;;;;4.70;4.40;;;19.70;75.30;;;;;;5047027;28;20596;-81
2022/07/12 05:44:17;;;;;;;5.00;4.68;;;19.70;75.30;;;;;;5041351;28;20195;-82
2022/07/12 05:46:43;;;;;;;4.40;4.10;;;19.60;75.60;;;;;;5044786;28;20195;-80
2022/07/12 05:49:08;;;;;;;5.10;4.78;;;19.60;75.90;;;;;;5044852;28;20252;-81
2022/07/12 05:54:18;;;;;;;4.85;4.45;;;19.70;75.90;;;;;;5039207;28;20228;-80
2022/07/12 05:56:44;;;;;;;5.03;4.63;;;19.80;75.50;;;;;;5044757;28;20185;-80
2022/07/12 05:59:12;;;;;;;4.50;4.30;;;19.80;74.60;;;;;;5045634;28;20184;-82
2022/07/12 06:01:38;;;;;;;4.55;4.32;;;19.90;74.40;;;;;;5046085;28;20203;-80
2022/07/12 06:04:04;;;;;;;4.95;4.55;;;20.00;74.10;;;;;;5057839;28;20363;-81
2022/07/12 06:06:29;;;;;;;4.35;4.07;;;20.10;72.70;;;;;;5046999;28;20658;-81
2022/07/12 06:08:55;;;;;;;4.68;4.38;;;20.10;73.20;;;;;;5047755;28;20531;-81
2022/07/12 06:11:21;;;;;;;4.93;4.53;;;20.10;73.60;;;;;;5048378;28;20219;-81
2022/07/12 06:13:46;;;;;;;4.60;4.20;;;20.10;74.00;;;;;;5042212;28;20205;-80
2022/07/12 06:16:12;;;;;;;4.53;4.20;;;20.00;73.50;;;;;;5046770;28;20198;-81
2022/07/12 06:18:38;;;;;;;4.75;4.45;;;20.10;74.00;;;;;;5036969;28;20379;-84
2022/07/12 06:21:04;;;;;;;4.88;4.60;;;20.20;73.50;;;;;;5050985;28;20211;-81
2022/07/12 06:23:30;;;;;;;4.65;4.30;;;20.30;73.30;;;;;;5051058;28;20213;-81
2022/07/12 06:25:56;;;;;;;4.63;4.32;;;20.30;71.80;;;;;;5050073;28;20195;-81
2022/07/12 06:28:22;;;;;;;4.70;4.40;;;20.40;72.40;;;;;;5051660;28;20390;-81
2022/07/12 06:30:48;;;;;;;5.78;5.20;;;20.50;71.10;;;;;;5047296;28;20211;-81
2022/07/12 06:33:13;;;;;;;4.68;4.22;;;20.70;71.00;;;;;;5040407;28;20208;-81
2022/07/12 06:35:39;;;;;;;4.50;4.30;;;20.80;68.90;;;;;;5042554;28;20184;-81
2022/07/12 06:38:05;;;;;;;4.22;3.95;;;20.90;67.60;;;;;;5031307;28;20227;-82
2022/07/12 06:40:30;;;;;;;4.43;4.22;;;21.00;67.20;;;;;;5045013;28;20668;-83
2022/07/12 06:42:57;;;;;;;4.78;4.53;;;21.20;67.60;;;;;;5046171;28;20209;-81
2022/07/12 06:45:23;;;;;;;4.22;3.92;;;21.30;66.10;;;;;;5046831;28;20190;-82
2022/07/12 06:47:49;;;;;;;3.88;3.67;;;21.40;66.30;;;;;;5043482;28;20217;-83
2022/07/12 06:50:14;;;;;;;3.90;3.70;;;21.50;65.10;;;;;;5044211;28;20254;-81
2022/07/12 06:52:40;;;;;;;4.25;3.95;;;21.60;64.70;;;;;;5047249;28;20215;-82
2022/07/12 06:55:07;;;;;;;4.45;4.15;;;21.80;63.90;;;;;;5029537;28;20200;-81
2022/07/12 06:57:37;;;;;;;3.97;3.72;;;21.80;63.50;;;;;;5058217;28;20605;-81
2022/07/12 07:00:04;;;;;;;4.40;4.10;;;21.90;62.40;;;;;;5054862;28;20203;-81
2022/07/12 07:02:30;;;;;;;4.57;4.10;;;21.90;62.20;;;;;;5051520;28;20275;-81
2022/07/12 07:04:56;;;;;;;4.30;4.10;;;22.00;62.70;;;;;;5054157;28;20265;-81
2022/07/12 07:07:21;;;;;;;3.95;3.75;;;22.10;63.50;;;;;;5055091;28;20188;-82
2022/07/12 07:09:47;;;;;;;3.97;3.67;;;22.10;62.30;;;;;;5065787;28;20183;-82
2022/07/12 07:12:12;;;;;;;3.80;3.63;;;22.20;60.10;;;;;;5045949;28;20396;-80
2022/07/12 07:14:38;;;;;;;4.05;3.85;;;22.40;59.20;;;;;;5045808;28;20187;-82
2022/07/12 07:17:04;;;;;;;4.13;3.83;;;22.40;58.60;;;;;;5060301;28;20254;-81
2022/07/12 07:19:30;;;;;;;4.15;3.90;;;22.60;58.60;;;;;;5064594;28;20192;-80
2022/07/12 07:21:55;;;;;;;4.30;4.10;;;22.60;59.60;;;;;;5067622;28;20299;-79
2022/07/12 07:24:22;;;;;;;4.50;4.30;;;22.50;60.00;;;;;;5066889;28;20280;-80
2022/07/12 07:26:48;;;;;;;4.10;3.80;;;22.50;59.50;;;;;;5061107;28;20254;-80
2022/07/12 07:31:58;;;;;;;4.30;4.00;;;22.70;59.50;;;;;;5064401;28;20237;-80
2022/07/12 07:34:24;;;;;;;4.75;4.38;;;22.80;59.50;;;;;;5065758;28;20620;-82
2022/07/12 07:36:51;;;;;;;4.63;4.22;;;22.90;58.60;;;;;;5072650;28;20188;-80
2022/07/12 07:39:16;;;;;;;4.50;4.30;;;22.90;57.40;;;;;;5067083;28;20265;-81
2022/07/12 07:41:42;;;;;;;4.63;4.32;;;23.00;57.60;;;;;;5069969;28;20216;-82
2022/07/12 07:44:08;;;;;;;3.97;3.78;;;22.90;58.50;;;;;;5069714;28;20203;-79
2022/07/12 07:46:34;;;;;;;4.15;3.95;;;23.00;56.10;;;;;;5068976;28;20180;-82
2022/07/12 07:48:59;;;;;;;4.45;4.22;;;23.00;55.20;;;;;;5072496;28;20195;-82
2022/07/12 07:51:25;;;;;;;4.45;4.25;;;23.00;56.80;;;;;;5057572;28;20224;-81
2022/07/12 07:53:51;;;;;;;4.57;4.28;;;23.10;56.90;;;;;;5075889;28;20289;-79
2022/07/12 07:56:16;;;;;;;4.60;4.40;;;23.10;57.20;;;;;;5081347;28;20192;-80
2022/07/12 07:58:42;;;;;;;4.63;4.43;;;23.20;56.80;;;;;;5076540;28;20283;-81
2022/07/12 08:01:08;;;;;;;4.68;4.38;;;23.30;55.40;;;;;;5077600;28;20211;-82
2022/07/12 08:03:33;;;;;;;4.47;4.28;;;23.40;55.30;;;;;;5068913;28;20192;-81
2022/07/12 08:06:00;;;;;;;4.25;4.03;;;23.30;55.10;;;;;;5073242;28;20462;-82
2022/07/12 08:08:30;;;;;;;4.32;4.13;;;23.30;55.30;;;;;;5075458;28;20247;-82
2022/07/12 08:10:56;;;;;;;4.35;4.15;;;23.30;55.10;;;;;;5071952;28;20236;-82
2022/07/12 08:13:22;;;;;;;4.82;4.63;;;23.50;52.80;;;;;;5075793;28;20212;-83
2022/07/12 08:15:48;;;;;;;4.60;4.40;;;23.70;52.40;;;;;;5072978;28;20188;-81
2022/07/12 08:18:13;;;;;;;4.65;4.45;;;23.80;51.70;;;;;;5074478;28;20606;-80
2022/07/12 08:20:39;;;;;;;4.40;4.20;;;23.90;51.50;;;;;;5070600;28;20214;-81
2022/07/12 08:23:05;;;;;;;4.45;4.00;;;24.00;50.50;;;;;;5070785;28;20207;-80
2022/07/12 08:25:30;;;;;;;4.57;4.38;;;24.00;52.40;;;;;;5077391;28;20200;-80
2022/07/12 08:27:56;;;;;;;4.43;4.22;;;24.20;51.10;;;;;;5072005;28;20203;-81
2022/07/12 08:30:22;;;;;;;4.43;4.22;;;24.00;51.20;;;;;;5066758;28;20242;-79
2022/07/12 08:32:48;;;;;;;4.20;4.00;;;24.00;50.30;;;;;;5063751;28;20223;-81
2022/07/12 08:35:14;;;;;;;3.85;3.75;;;24.10;50.80;;;;;;5062028;28;20187;-82
2022/07/12 08:37:40;;;;;;;4.20;4.00;;;24.30;49.90;;;;;;5070063;28;20176;-82
2022/07/12 08:40:07;;;;;;;4.20;4.00;;;24.40;49.80;;;;;;5074016;28;20204;-80
2022/07/12 08:42:33;;;;;;;4.45;4.22;;;24.50;49.40;;;;;;5072186;28;20184;-82
2022/07/12 08:44:59;;;;;;;4.00;3.80;;;24.50;48.80;;;;;;5066528;28;20181;-84
2022/07/12 08:47:25;;;;;;;3.95;3.75;;;24.50;48.40;;;;;;5064913;28;20829;-82
2022/07/12 08:50:18;;;;;;;3.90;3.70;;;24.50;47.40;;;;;;5068915;28;20185;-81
2022/07/12 08:52:54;;;;;;;4.00;3.63;;;24.80;47.20;;;;;;5067754;28;20295;-82
2022/07/12 08:55:34;;;;;;;4.10;3.80;;;25.10;47.10;;;;;;5061707;28;20188;-83
2022/07/12 08:58:03;;;;;;;3.38;3.28;;;25.00;47.00;;;;;;5074641;28;20218;-83
2022/07/12 09:00:30;;;;;;;3.33;3.13;;;25.10;45.50;;;;;;5061980;28;20721;-84
2022/07/12 09:02:58;;;;;;;3.35;3.17;;;25.00;46.80;;;;;;5058825;28;20196;-82
2022/07/12 09:05:29;;;;;;;3.60;3.30;;;25.10;45.50;;;;;;5060256;28;20184;-81
2022/07/12 09:08:07;;;;;;;3.15;3.05;;;25.30;46.30;;;;;;5060055;28;20705;-83
2022/07/12 09:49:18;;;;;;;4.18;3.97;;;26.50;41.80;;;;;;4996404;28;20281;-88
2022/07/12 09:51:46;;;;;;;4.30;4.07;;;26.70;41.90;;;;;;5018211;28;20209;-88
2022/07/12 09:54:35;;;;;;;4.30;4.00;;;26.90;41.60;;;;;;5001696;28;20767;-89
2022/07/12 09:57:03;;;;;;;3.95;3.75;;;26.40;41.60;;;;;;5010997;28;20190;-89
2022/07/12 09:59:34;;;;;;;5.25;4.95;;;26.70;40.90;;;;;;4999661;28;20190;-89
2022/07/12 10:02:03;;;;;;;7.90;7.35;;;26.70;40.40;;;;;;5015768;28;20204;-90
2022/07/12 10:04:30;;;;;;;4.90;4.70;;;26.80;40.60;;;;;;5017509;28;20219;-90
2022/07/12 10:06:57;;;;;;;4.70;4.50;;;27.30;41.50;;;;;;4994506;28;20344;-89
2022/07/12 10:09:24;;;;;;;4.90;4.70;;;27.50;40.40;;;;;;4984913;28;20200;-89
2022/07/12 10:11:50;;;;;;;4.82;4.63;;;27.80;39.80;;;;;;4995882;28;20232;-91
2022/07/12 10:14:18;;;;;;;4.35;4.15;;;27.80;40.00;;;;;;4999993;28;20200;-89
2022/07/12 10:16:45;;;;;;;4.65;4.45;;;27.10;41.90;;;;;;4996764;28;20205;-89
2022/07/12 10:19:35;;;;;;;4.32;4.13;;;27.20;43.10;;;;;;4992274;28;20205;-90
2022/07/12 10:22:02;;;;;;;4.25;3.95;;;27.30;41.90;;;;;;5014618;28;20247;-89
2022/07/12 10:24:31;;;;;;;4.40;4.20;;;27.30;39.70;;;;;;4997550;28;20281;-90
2022/07/12 10:26:58;;;;;;;4.70;4.50;;;27.60;39.20;;;;;;4999197;28;20228;-90
2022/07/12 10:29:25;;;;;;;4.57;4.38;;;28.00;39.20;;;;;;4993207;28;20193;-88
2022/07/12 10:31:52;;;;;;;4.60;4.38;;;28.20;39.40;;;;;;4997876;28;20196;-91
2022/07/12 10:34:23;;;;;;;4.70;4.50;;;28.00;39.10;;;;;;4992669;28;20293;-90
2022/07/12 10:36:58;;;;;;;4.60;4.40;;;28.20;39.00;;;;;;4989452;28;20201;-91
2022/07/12 10:39:27;;;;;;;4.30;4.10;;;28.10;38.20;;;;;;5016048;28;20172;-89
2022/07/12 10:42:05;;;;;;;4.68;4.47;;;27.80;37.80;;;;;;5004304;28;20186;-88
2022/07/12 10:44:34;;;;;;;4.57;4.38;;;28.10;38.10;;;;;;5022222;28;20273;-90
2022/07/12 10:47:00;;;;;;;4.60;4.28;;;28.10;36.70;;;;;;5023868;28;20273;-89
2022/07/12 10:49:28;;;;;;;4.32;4.13;;;28.40;36.50;;;;;;4989681;28;20213;-88
2022/07/12 10:52:14;;;;;;;4.18;3.97;;;28.60;36.80;;;;;;4997497;28;20240;-88
2022/07/12 10:55:08;;;;;;;3.65;3.55;;;28.90;35.70;;;;;;4999181;28;20209;-88
2022/07/12 10:57:44;;;;;;;4.00;3.80;;;28.90;35.00;;;;;;4993770;28;20200;-89
2022/07/12 11:00:16;;;;;;;3.85;3.75;;;28.70;34.70;;;;;;5006972;28;20180;-92
2022/07/12 11:02:43;;;;;;;4.15;3.85;;;29.00;34.90;;;;;;5029010;28;20213;-88
2022/07/12 11:05:09;;;;;;;4.18;3.90;;;29.30;34.40;;;;;;5022347;28;20248;-88
2022/07/12 11:07:36;;;;;;;3.85;3.60;;;29.50;34.40;;;;;;5020889;28;20219;-90
2022/07/12 11:10:02;;;;;;;4.07;3.90;;;29.80;33.50;;;;;;5010554;28;20193;-90
2022/07/12 11:12:32;;;;;;;4.45;4.05;;;29.70;33.50;;;;;;5011180;28;20208;-90
2022/07/12 11:15:02;;;;;;;3.92;3.72;;;29.50;34.20;;;;;;5010269;28;20209;-88
2022/07/12 11:17:32;;;;;;;4.18;3.97;;;29.90;33.20;;;;;;5015168;28;20185;-89
2022/07/12 11:20:06;;;;;;;4.15;3.95;;;29.80;33.60;;;;;;5007340;28;20217;-91
2022/07/12 11:22:32;;;;;;;4.05;3.88;;;29.70;33.50;;;;;;5025945;28;20169;-93
2022/07/12 11:24:59;;;;;;;4.00;3.80;;;29.60;33.60;;;;;;5040212;28;20231;-91
2022/07/12 11:27:28;;;;;;;4.32;3.90;;;29.50;33.90;;;;;;5000474;28;20193;-88
2022/07/12 11:29:59;;;;;;;4.20;4.00;;;29.70;33.40;;;;;;5009745;28;20208;-89
2022/07/12 11:32:43;;;;;;;4.38;4.18;;;30.10;32.80;;;;;;4999892;28;20186;-90
2022/07/12 11:35:22;;;;;;;5.53;4.32;;;30.10;32.80;;;;;;4995855;28;20210;-89
2022/07/12 11:37:56;;;;;;;4.30;4.10;;;30.10;33.50;;;;;;5018476;28;20197;-89
2022/07/12 11:40:30;;;;;;;4.32;4.13;;;30.60;33.80;;;;;;4990958;28;20253;-90
2022/07/12 11:42:58;;;;;;;3.80;3.60;;;30.80;32.30;;;;;;4995458;28;20194;-89
2022/07/12 11:45:26;;;;;;;3.88;3.72;;;30.80;32.30;;;;;;5005406;28;20220;-90
2022/07/12 11:47:52;;;;;;;3.80;3.70;;;30.60;32.00;;;;;;4993268;28;20177;-89
2022/07/12 11:50:19;;;;;;;4.47;4.28;;;30.80;30.70;;;;;;5029024;28;20585;-89
2022/07/12 11:52:45;;;;;;;4.13;3.97;;;31.40;31.30;;;;;;5011472;28;20213;-91
2022/07/12 11:55:11;;;;;;;4.57;4.30;;;31.70;29.90;;;;;;4999170;28;20218;-92
2022/07/12 11:57:37;;;;;;;4.90;4.70;;;31.60;29.70;;;;;;5000948;28;20287;-90
2022/07/12 12:00:23;;;;;;;4.97;4.78;;;31.60;29.80;;;;;;5022445;28;20181;-91
2022/07/12 12:02:54;;;;;;;4.88;4.68;;;31.70;30.80;;;;;;4999386;28;20186;-89
2022/07/12 12:05:21;;;;;;;5.05;4.85;;;31.40;31.90;;;;;;4989498;28;20204;-89
2022/07/12 12:07:47;;;;;;;4.75;4.55;;;31.60;31.70;;;;;;5009007;28;20196;-89
2022/07/12 12:10:15;;;;;;;4.88;4.68;;;31.80;30.20;;;;;;5009380;28;20189;-89
2022/07/12 12:12:43;;;;;;;5.50;5.20;;;31.80;30.10;;;;;;4983501;28;20213;-89
2022/07/12 12:15:21;;;;;;;5.55;5.35;;;32.20;30.40;;;;;;5001344;28;20214;-89
2022/07/12 12:17:53;;;;;;;5.70;5.28;;;32.30;31.30;;;;;;4982481;28;20212;-89
2022/07/12 12:20:21;;;;;;;5.60;5.40;;;32.30;30.70;;;;;;5019440;28;20178;-89
2022/07/12 12:22:53;;;;;;;5.72;5.43;;;32.10;31.50;;;;;;5001870;28;20213;-89
2022/07/12 12:25:19;;;;;;;5.90;5.45;;;32.30;31.30;;;;;;5024189;28;20309;-89
2022/07/12 12:27:48;;;;;;;5.75;5.55;;;32.40;31.90;;;;;;5013542;28;20548;-89
2022/07/12 12:30:15;;;;;;;5.88;5.47;;;32.70;30.50;;;;;;5012702;28;20270;-88
2022/07/12 12:32:49;;;;;;;6.47;6.25;;;32.80;30.30;;;;;;4992217;28;20194;-88
2022/07/12 12:35:17;;;;;;;5.72;5.53;;;32.50;30.60;;;;;;5012079;28;20205;-89
2022/07/12 12:38:12;;;;;;;5.95;5.65;;;32.30;31.40;;;;;;4996939;28;20208;-88
2022/07/12 12:40:38;;;;;;;5.78;5.57;;;32.20;31.10;;;;;;5011770;28;20211;-88
2022/07/12 12:43:12;;;;;;;6.35;6.05;;;32.10;32.30;;;;;;5001827;28;20193;-88
2022/07/12 12:45:53;;;;;;;6.43;6.22;;;32.20;31.30;;;;;;5012324;28;20218;-87
2022/07/12 12:48:22;;;;;;;6.18;5.78;;;32.80;31.10;;;;;;4998238;28;20201;-88
2022/07/12 12:50:50;;;;;;;6.30;5.95;;;32.50;30.80;;;;;;5011514;28;20202;-87
2022/07/12 12:53:18;;;;;;;6.57;6.20;;;32.50;30.70;;;;;;4994201;28;20236;-89
2022/07/12 12:55:49;;;;;;;6.40;6.10;;;32.30;31.20;;;;;;5012065;28;20233;-88
2022/07/12 12:58:16;;;;;;;6.32;6.03;;;32.40;31.30;;;;;;5033071;28;20196;-89
2022/07/12 13:00:44;;;;;;;5.97;5.72;;;32.20;31.70;;;;;;5013414;28;20205;-89
2022/07/12 13:03:17;;;;;;;6.25;5.95;;;32.60;31.00;;;;;;5031340;28;20599;-89
2022/07/12 13:05:43;;;;;;;6.90;6.60;;;32.90;30.60;;;;;;5005825;28;20201;-89
2022/07/12 13:08:10;;;;;;;6.70;6.43;;;33.30;29.70;;;;;;5018471;28;20186;-90
2022/07/12 13:10:37;;;;;;;7.00;6.70;;;33.80;29.30;;;;;;4999532;28;20248;-89
2022/07/12 13:13:04;;;;;;;7.25;6.95;;;33.80;29.30;;;;;;4988820;28;20209;-89
2022/07/12 13:15:31;;;;;;;7.78;7.47;;;33.90;29.00;;;;;;5014722;28;20212;-90
2022/07/12 13:17:57;;;;;;;7.15;6.80;;;34.00;29.10;;;;;;4996511;28;20453;-90
2022/07/12 13:20:24;;;;;;;7.03;6.72;;;33.80;29.50;;;;;;5022381;28;20197;-90
2022/07/12 13:22:50;;;;;;;7.57;7.28;;;33.80;29.30;;;;;;5010367;28;20196;-90
2022/07/12 13:25:16;;;;;;;8.10;7.80;;;34.00;30.00;;;;;;5022026;28;20770;-89
2022/07/12 13:27:42;;;;;;;8.18;7.88;;;34.40;29.80;;;;;;5014334;28;20215;-91
2022/07/12 13:30:11;;;;;;;6.93;6.63;;;34.50;28.10;;;;;;5016742;28;20638;-91
2022/07/12 13:32:38;;;;;;;7.50;7.10;;;34.10;29.40;;;;;;5012066;28;20197;-90
2022/07/12 13:35:05;;;;;;;7.80;7.32;;;34.40;28.30;;;;;;5016973;28;20197;-92
2022/07/12 13:37:32;;;;;;;7.80;7.50;;;34.60;28.80;;;;;;5002567;28;20185;-92